createdAt,value
2022-10-27T00:00:38.810Z,100.00
2022-10-27T00:03:05.832Z,100.00
2022-10-27T00:05:34.405Z,100.00
2022-10-27T00:08:01.145Z,100.00
2022-10-27T00:10:28.047Z,100.00
2022-10-27T00:12:55.156Z,100.00
2022-10-27T00:15:21.883Z,100.00
2022-10-27T00:17:48.649Z,100.00
2022-10-27T00:20:15.373Z,100.00
2022-10-27T00:22:42.118Z,100.00
2022-10-27T00:25:09.079Z,100.00
2022-10-27T00:27:36.057Z,100.00
2022-10-27T00:30:03.017Z,100.00
2022-10-27T00:32:30.136Z,100.00
2022-10-27T00:34:56.902Z,100.00
2022-10-27T00:37:23.669Z,100.00
2022-10-27T00:39:50.343Z,100.00
2022-10-27T00:42:17.004Z,100.00
2022-10-27T00:44:47.324Z,100.00
2022-10-27T00:47:23.812Z,100.00
2022-10-27T00:50:07.196Z,100.00
2022-10-27T00:52:37.433Z,100.00
2022-10-27T00:55:08.382Z,100.00
2022-10-27T00:57:35.517Z,100.00
2022-10-27T01:00:04.919Z,100.00
2022-10-27T01:02:32.930Z,100.00
2022-10-27T01:05:13.389Z,100.00
2022-10-27T01:07:41.937Z,100.00
2022-10-27T01:10:08.797Z,100.00
2022-10-27T01:12:35.953Z,100.00
2022-10-27T01:15:03.327Z,100.00
2022-10-27T01:18:06.437Z,100.00
2022-10-27T01:21:28.809Z,100.00
2022-10-27T01:24:11.850Z,100.00
2022-10-27T01:26:51.949Z,100.00
2022-10-27T01:29:56.546Z,100.00
2022-10-27T01:33:12.476Z,100.00
2022-10-27T01:35:50.135Z,100.00
2022-10-27T01:38:21.157Z,100.00
2022-10-27T01:41:06.968Z,100.00
2022-10-27T01:43:35.275Z,100.00
2022-10-27T01:46:04.009Z,100.00
2022-10-27T01:48:33.714Z,100.00
2022-10-27T01:51:01.856Z,100.00
2022-10-27T01:53:31.836Z,100.00
2022-10-27T01:56:48.669Z,100.00
2022-10-27T01:59:44.930Z,100.00
2022-10-27T02:02:35.371Z,100.00
2022-10-27T02:05:42.922Z,100.00
2022-10-27T02:08:42.011Z,100.00
2022-10-27T02:11:10.421Z,100.00
2022-10-27T02:13:40.078Z,100.00
2022-10-27T02:16:09.556Z,100.00
2022-10-27T02:18:40.402Z,100.00
2022-10-27T02:21:09.340Z,100.00
2022-10-27T02:23:36.540Z,100.00
2022-10-27T02:26:21.276Z,100.00
2022-10-27T02:28:56.850Z,100.00
2022-10-27T02:31:33.808Z,100.00
2022-10-27T02:34:01.958Z,100.00
2022-10-27T02:36:29.214Z,100.00
2022-10-27T02:38:55.880Z,100.00
2022-10-27T02:41:23.116Z,100.00
2022-10-27T02:43:50.285Z,100.00
2022-10-27T02:46:17.090Z,100.00
2022-10-27T02:48:43.903Z,100.00
2022-10-27T02:51:11.821Z,100.00
2022-10-27T02:53:38.499Z,100.00
2022-10-27T02:56:05.691Z,100.00
2022-10-27T02:58:32.548Z,100.00
2022-10-27T03:00:59.411Z,100.00
2022-10-27T03:03:26.237Z,100.00
2022-10-27T03:05:53.167Z,100.00
2022-10-27T03:08:23.134Z,100.00
2022-10-27T03:10:50.090Z,100.00
2022-10-27T03:13:16.912Z,100.00
2022-10-27T03:15:46.432Z,100.00
2022-10-27T03:18:14.160Z,100.00
2022-10-27T03:20:44.198Z,100.00
2022-10-27T03:23:11.071Z,100.00
2022-10-27T03:25:42.597Z,100.00
2022-10-27T03:28:12.414Z,100.00
2022-10-27T03:30:40.220Z,100.00
2022-10-27T03:33:06.955Z,100.00
2022-10-27T03:35:33.887Z,100.00
2022-10-27T03:38:02.082Z,100.00
2022-10-27T03:40:29.421Z,100.00
2022-10-27T03:42:59.386Z,100.00
2022-10-27T03:45:27.003Z,100.00
2022-10-27T03:48:05.233Z,100.00
2022-10-27T03:50:32.394Z,100.00
2022-10-27T03:52:59.942Z,100.00
2022-10-27T03:55:27.111Z,100.00
2022-10-27T03:57:54.290Z,100.00
2022-10-27T04:00:21.181Z,100.00
2022-10-27T04:02:48.819Z,100.00
2022-10-27T04:05:15.954Z,100.00
2022-10-27T04:07:46.457Z,100.00
2022-10-27T04:10:14.741Z,100.00
2022-10-27T04:12:52.493Z,100.00
2022-10-27T04:15:20.683Z,100.00
2022-10-27T04:17:47.967Z,100.00
2022-10-27T04:20:14.993Z,100.00
2022-10-27T04:22:41.798Z,100.00
2022-10-27T04:25:08.840Z,100.00
2022-10-27T04:27:35.786Z,100.00
2022-10-27T04:30:02.727Z,100.00
2022-10-27T04:32:29.464Z,100.00
2022-10-27T04:34:56.150Z,100.00
2022-10-27T04:37:23.253Z,100.00
2022-10-27T04:39:49.914Z,100.00
2022-10-27T04:42:16.656Z,100.00
2022-10-27T04:44:43.434Z,100.00
2022-10-27T04:47:10.625Z,100.00
2022-10-27T04:49:37.398Z,100.00
2022-10-27T04:52:04.365Z,100.00
2022-10-27T04:54:31.323Z,100.00
2022-10-27T04:56:58.337Z,100.00
2022-10-27T04:59:25.137Z,100.00
2022-10-27T05:01:52.334Z,100.00
2022-10-27T05:04:19.367Z,100.00
2022-10-27T05:06:46.215Z,100.00
2022-10-27T05:09:12.986Z,100.00
2022-10-27T05:11:39.656Z,100.00
2022-10-27T05:14:06.413Z,100.00
2022-10-27T05:16:33.154Z,100.00
2022-10-27T05:19:00.085Z,100.00
2022-10-27T05:21:26.825Z,100.00
2022-10-27T05:23:53.559Z,100.00
2022-10-27T05:26:20.446Z,100.00
2022-10-27T05:28:48.405Z,100.00
2022-10-27T05:31:15.315Z,100.00
2022-10-27T05:33:42.076Z,100.00
2022-10-27T05:36:09.047Z,100.00
2022-10-27T05:38:38.481Z,100.00
2022-10-27T05:41:07.302Z,100.00
2022-10-27T05:43:37.718Z,100.00
2022-10-27T05:46:06.690Z,100.00
2022-10-27T05:48:33.574Z,100.00
2022-10-27T05:51:00.319Z,100.00
2022-10-27T05:53:26.994Z,100.00
2022-10-27T05:55:54.595Z,100.00
2022-10-27T05:58:21.756Z,100.00
2022-10-27T06:00:48.507Z,100.00
2022-10-27T06:03:23.271Z,100.00
2022-10-27T06:05:50.723Z,100.00
2022-10-27T06:08:18.218Z,100.00
2022-10-27T06:10:45.774Z,100.00
2022-10-27T06:13:16.405Z,100.00
2022-10-27T06:18:11.306Z,100.00
2022-10-27T06:20:37.973Z,100.00
2022-10-27T06:23:04.880Z,100.00
2022-10-27T06:25:31.730Z,100.00
2022-10-27T06:27:58.671Z,100.00
2022-10-27T06:30:25.609Z,100.00
2022-10-27T06:32:52.694Z,100.00
2022-10-27T06:35:20.359Z,100.00
2022-10-27T06:37:47.872Z,100.00
2022-10-27T06:40:17.622Z,100.00
2022-10-27T06:43:09.987Z,100.00
2022-10-27T06:45:31.599Z,100.00
2022-10-27T06:47:59.441Z,100.00
2022-10-27T06:50:26.452Z,100.00
2022-10-27T06:52:53.721Z,100.00
2022-10-27T06:55:21.094Z,100.00
2022-10-27T06:57:48.010Z,100.00
2022-10-27T07:00:15.317Z,100.00
2022-10-27T07:02:42.121Z,100.00
2022-10-27T07:05:09.672Z,100.00
2022-10-27T07:07:37.435Z,100.00
2022-10-27T07:10:06.499Z,100.00
2022-10-27T07:12:33.485Z,100.00
2022-10-27T07:15:00.258Z,100.00
2022-10-27T07:17:26.994Z,100.00
2022-10-27T07:19:53.672Z,100.00
2022-10-27T07:22:20.429Z,100.00
2022-10-27T07:24:47.128Z,100.00
2022-10-27T07:27:13.896Z,100.00
2022-10-27T07:29:41.045Z,100.00
2022-10-27T07:32:07.731Z,100.00
2022-10-27T07:34:34.461Z,100.00
2022-10-27T07:37:01.124Z,100.00
2022-10-27T07:39:28.009Z,100.00
2022-10-27T07:41:54.709Z,100.00
2022-10-27T07:44:21.630Z,100.00
2022-10-27T07:46:48.385Z,100.00
2022-10-27T07:49:15.314Z,100.00
2022-10-27T07:51:42.149Z,100.00
2022-10-27T07:54:09.330Z,100.00
2022-10-27T07:56:37.421Z,100.00
2022-10-27T07:59:05.102Z,100.00
2022-10-27T08:01:32.373Z,100.00
2022-10-27T08:03:59.390Z,100.00
2022-10-27T08:06:26.664Z,100.00
2022-10-27T08:08:53.459Z,100.00
2022-10-27T08:11:20.508Z,100.00
2022-10-27T08:13:47.307Z,100.00
2022-10-27T08:16:14.111Z,100.00
2022-10-27T08:18:40.812Z,100.00
2022-10-27T08:21:07.767Z,100.00
2022-10-27T08:23:34.466Z,100.00
2022-10-27T08:26:01.183Z,100.00
2022-10-27T08:28:28.201Z,100.00
2022-10-27T08:30:55.144Z,100.00
2022-10-27T08:33:22.941Z,100.00
2022-10-27T08:35:50.978Z,100.00
2022-10-27T08:38:18.494Z,100.00
2022-10-27T08:41:25.610Z,100.00
2022-10-27T08:44:41.854Z,100.00
2022-10-27T08:47:16.474Z,100.00
2022-10-27T08:49:51.807Z,100.00
2022-10-27T08:52:50.643Z,100.00
2022-10-27T08:55:24.166Z,100.00
2022-10-27T08:58:04.102Z,100.00
2022-10-27T09:00:36.823Z,100.00
2022-10-27T09:03:41.996Z,100.00
2022-10-27T09:06:23.440Z,100.00
2022-10-27T09:08:56.464Z,100.00
2022-10-27T09:11:57.318Z,100.00
2022-10-27T09:15:07.476Z,100.00
2022-10-27T09:17:41.784Z,100.00
2022-10-27T09:20:17.583Z,100.00
2022-10-27T09:22:44.340Z,100.00
2022-10-27T09:25:19.610Z,100.00
2022-10-27T09:27:49.484Z,100.00
2022-10-27T09:30:17.072Z,100.00
2022-10-27T09:32:50.387Z,100.00
2022-10-27T09:35:29.197Z,100.00
2022-10-27T09:37:58.284Z,100.00
2022-10-27T09:40:26.255Z,100.00
2022-10-27T09:42:55.459Z,100.00
2022-10-27T09:45:26.903Z,100.00
2022-10-27T09:48:15.876Z,100.00
2022-10-27T09:51:13.714Z,100.00
2022-10-27T09:53:48.283Z,100.00
2022-10-27T09:56:38.289Z,100.00
2022-10-27T09:59:05.991Z,100.00
2022-10-27T10:01:59.867Z,100.00
2022-10-27T10:04:43.163Z,100.00
2022-10-27T10:07:40.636Z,100.00
2022-10-27T10:10:41.058Z,100.00
2022-10-27T10:13:13.885Z,100.00
2022-10-27T10:15:45.597Z,100.00
2022-10-27T10:18:28.941Z,100.00
2022-10-27T10:21:01.631Z,100.00
2022-10-27T10:23:31.337Z,100.00
2022-10-27T10:26:02.139Z,100.00
2022-10-27T10:28:35.626Z,100.00
2022-10-27T10:31:05.532Z,100.00
2022-10-27T10:33:45.319Z,100.00
2022-10-27T10:36:29.572Z,100.00
2022-10-27T10:38:58.771Z,100.00
2022-10-27T10:41:26.876Z,100.00
2022-10-27T10:44:16.613Z,100.00
2022-10-27T10:46:55.229Z,100.00
2022-10-27T10:49:27.476Z,100.00
2022-10-27T10:51:58.353Z,100.00
2022-10-27T10:54:28.404Z,100.00
2022-10-27T10:56:56.159Z,100.00
2022-10-27T10:59:31.285Z,100.00
2022-10-27T11:02:19.372Z,100.00
2022-10-27T11:04:49.590Z,100.00
2022-10-27T11:07:32.597Z,100.00
2022-10-27T11:10:15.000Z,100.00
2022-10-27T11:12:55.273Z,100.00
2022-10-27T11:15:28.703Z,100.00
2022-10-27T11:17:59.881Z,100.00
2022-10-27T11:20:32.132Z,99.67
2022-10-27T11:23:00.486Z,99.99
2022-10-27T11:25:32.366Z,99.27
2022-10-27T11:28:22.081Z,98.59
2022-10-27T11:31:21.351Z,97.91
2022-10-27T11:34:12.835Z,98.20
2022-10-27T11:36:47.085Z,96.78
2022-10-27T11:39:40.468Z,95.73
2022-10-27T11:42:21.069Z,94.27
2022-10-27T11:45:12.004Z,94.72
2022-10-27T11:47:44.700Z,92.36
2022-10-27T11:50:18.663Z,91.71
2022-10-27T11:52:50.172Z,91.23
2022-10-27T11:55:19.452Z,91.62
2022-10-27T11:58:00.882Z,90.69
2022-10-27T12:00:29.748Z,90.50
2022-10-27T12:03:39.528Z,91.20
2022-10-27T12:06:27.810Z,91.32
2022-10-27T12:09:33.487Z,90.23
2022-10-27T12:12:14.474Z,90.49
2022-10-27T12:14:52.032Z,90.77
2022-10-27T12:17:33.046Z,89.93
2022-10-27T12:20:04.112Z,90.40
2022-10-27T12:22:52.272Z,89.68
2022-10-27T12:25:29.151Z,90.28
2022-10-27T12:27:58.453Z,91.22
2022-10-27T12:30:25.945Z,91.48
2022-10-27T12:33:17.390Z,91.40
2022-10-27T12:36:09.714Z,93.13
2022-10-27T12:39:26.690Z,92.07
2022-10-27T12:42:18.213Z,92.76
2022-10-27T12:45:19.232Z,92.12
2022-10-27T12:48:05.003Z,91.21
2022-10-27T12:51:01.243Z,90.61
2022-10-27T12:53:48.919Z,90.64
2022-10-27T12:56:43.796Z,89.83
2022-10-27T13:00:09.479Z,89.66
2022-10-27T13:02:48.145Z,87.30
2022-10-27T13:05:54.275Z,87.98
2022-10-27T13:08:58.191Z,87.56
2022-10-27T13:12:12.763Z,87.15
2022-10-27T13:18:20.853Z,86.58
2022-10-27T13:21:12.661Z,86.21
2022-10-27T13:23:47.732Z,86.00
2022-10-27T13:26:29.600Z,86.01
2022-10-27T13:29:00.416Z,86.21
2022-10-27T13:31:27.481Z,85.68
2022-10-27T13:34:20.806Z,85.46
2022-10-27T13:36:47.712Z,85.59
2022-10-27T13:39:34.735Z,85.78
2022-10-27T13:42:01.599Z,85.89
2022-10-27T13:44:33.859Z,86.05
2022-10-27T13:47:18.552Z,86.45
2022-10-27T13:49:59.162Z,86.78
2022-10-27T13:52:27.175Z,86.65
2022-10-27T13:55:29.078Z,87.36
2022-10-27T13:58:39.731Z,87.96
2022-10-27T14:01:31.116Z,86.43
2022-10-27T14:04:22.255Z,85.88
2022-10-27T14:07:03.859Z,87.02
2022-10-27T14:09:35.989Z,86.74
2022-10-27T14:12:16.256Z,86.27
2022-10-27T14:14:44.128Z,87.02
2022-10-27T14:17:22.026Z,86.43
2022-10-27T14:19:57.614Z,86.72
2022-10-27T14:22:46.386Z,87.07
2022-10-27T14:25:27.745Z,86.33
2022-10-27T14:28:20.875Z,86.23
2022-10-27T14:31:08.858Z,85.96
2022-10-27T14:33:38.609Z,86.14
2022-10-27T14:36:25.113Z,86.51
2022-10-27T14:39:05.109Z,87.21
2022-10-27T14:41:34.063Z,86.93
2022-10-27T14:44:03.011Z,87.50
2022-10-27T14:46:47.080Z,87.88
2022-10-27T14:49:18.510Z,87.52
2022-10-27T14:51:47.257Z,87.85
2022-10-27T14:54:18.896Z,87.96
2022-10-27T14:56:47.266Z,87.74
2022-10-27T14:59:32.533Z,88.23
2022-10-27T15:01:59.297Z,88.28
2022-10-27T15:04:27.860Z,89.43
2022-10-27T15:06:57.575Z,89.83
2022-10-27T15:09:39.855Z,90.29
2022-10-27T15:12:16.309Z,89.67
2022-10-27T15:14:45.834Z,90.14
2022-10-27T15:17:15.432Z,90.50
2022-10-27T15:19:52.565Z,91.22
2022-10-27T15:22:19.653Z,91.18
2022-10-27T15:24:46.890Z,91.66
2022-10-27T15:27:13.954Z,92.11
2022-10-27T15:29:42.667Z,91.84
2022-10-27T15:32:24.145Z,92.50
2022-10-27T15:34:51.231Z,92.39
2022-10-27T15:37:33.858Z,92.42
2022-10-27T15:40:21.475Z,93.05
2022-10-27T15:42:48.421Z,93.67
2022-10-27T15:45:50.651Z,93.22
2022-10-27T15:48:35.368Z,94.08
2022-10-27T15:51:07.618Z,93.79
2022-10-27T15:53:55.180Z,94.64
2022-10-27T15:56:40.893Z,94.54
2022-10-27T15:59:20.548Z,95.49
2022-10-27T16:01:49.210Z,95.36
2022-10-27T16:04:36.634Z,95.57
2022-10-27T16:07:33.014Z,95.62
2022-10-27T16:10:00.276Z,96.46
2022-10-27T16:12:29.665Z,96.29
2022-10-27T16:15:01.792Z,97.05
2022-10-27T16:17:35.701Z,96.65
2022-10-27T16:20:06.159Z,97.03
2022-10-27T16:22:33.105Z,97.06
2022-10-27T16:24:59.769Z,97.55
2022-10-27T16:27:27.074Z,97.62
2022-10-27T16:29:58.974Z,97.38
2022-10-27T16:32:30.610Z,98.05
2022-10-27T16:34:57.932Z,97.80
2022-10-27T16:37:30.656Z,98.44
2022-10-27T16:39:57.431Z,98.65
2022-10-27T16:42:25.274Z,99.34
2022-10-27T16:44:52.024Z,99.45
2022-10-27T16:47:20.944Z,99.95
2022-10-27T16:49:48.957Z,99.40
2022-10-27T16:52:16.073Z,99.74
2022-10-27T16:54:43.020Z,100.00
2022-10-27T16:57:10.991Z,100.00
2022-10-27T16:59:37.841Z,100.00
2022-10-27T17:02:04.824Z,100.00
2022-10-27T17:04:32.709Z,100.00
2022-10-27T17:06:59.538Z,100.00
2022-10-27T17:09:26.420Z,100.00
2022-10-27T17:11:53.098Z,100.00
2022-10-27T17:14:19.896Z,100.00
2022-10-27T17:16:46.651Z,100.00
2022-10-27T17:19:13.347Z,100.00
2022-10-27T17:21:40.353Z,100.00
2022-10-27T17:24:07.455Z,100.00
2022-10-27T17:26:34.228Z,100.00
2022-10-27T17:29:01.101Z,100.00
2022-10-27T17:31:28.263Z,100.00
2022-10-27T17:33:59.875Z,100.00
2022-10-27T17:36:27.432Z,100.00
2022-10-27T17:38:54.761Z,100.00
2022-10-27T17:41:21.869Z,100.00
2022-10-27T17:43:49.194Z,100.00
2022-10-27T17:46:20.718Z,100.00
2022-10-27T17:48:54.341Z,100.00
2022-10-27T17:51:23.652Z,100.00
2022-10-27T17:53:51.562Z,100.00
2022-10-27T17:56:23.989Z,100.00
2022-10-27T17:58:50.784Z,100.00
2022-10-27T18:01:25.997Z,100.00
2022-10-27T18:03:54.550Z,100.00
2022-10-27T18:06:23.798Z,100.00
2022-10-27T18:08:53.823Z,100.00
2022-10-27T18:11:26.732Z,100.00
2022-10-27T18:13:54.366Z,100.00
2022-10-27T18:16:24.541Z,100.00
2022-10-27T18:19:02.488Z,100.00
2022-10-27T18:21:31.225Z,100.00
2022-10-27T18:23:59.232Z,100.00
2022-10-27T18:26:27.310Z,100.00
2022-10-27T18:28:54.334Z,100.00
2022-10-27T18:31:23.123Z,100.00
2022-10-27T18:33:50.102Z,100.00
2022-10-27T18:36:18.839Z,100.00
2022-10-27T18:38:46.283Z,100.00
2022-10-27T18:41:15.197Z,100.00
2022-10-27T18:43:45.585Z,100.00
2022-10-27T18:46:13.932Z,100.00
2022-10-27T18:48:40.869Z,100.00
2022-10-27T18:51:11.273Z,100.00
2022-10-27T18:53:38.029Z,100.00
2022-10-27T18:56:07.160Z,100.00
2022-10-27T18:58:34.731Z,100.00
2022-10-27T19:01:09.519Z,100.00
2022-10-27T19:03:36.362Z,100.00
2022-10-27T19:06:05.128Z,100.00
2022-10-27T19:08:32.319Z,100.00
2022-10-27T19:11:07.331Z,100.00
2022-10-27T19:13:35.158Z,100.00
2022-10-27T19:16:03.410Z,100.00
2022-10-27T19:18:30.708Z,100.00
2022-10-27T19:20:58.782Z,100.00
2022-10-27T19:23:25.812Z,100.00
2022-10-27T19:25:53.514Z,100.00
2022-10-27T19:28:21.215Z,100.00
2022-10-27T19:30:57.592Z,100.00
2022-10-27T19:33:24.670Z,100.00
2022-10-27T19:35:51.536Z,100.00
2022-10-27T19:38:18.789Z,100.00
2022-10-27T19:40:45.887Z,100.00
2022-10-27T19:43:12.621Z,100.00
2022-10-27T19:45:39.279Z,100.00
2022-10-27T19:48:07.738Z,100.00
2022-10-27T19:50:34.416Z,100.00
2022-10-27T19:53:02.634Z,100.00
2022-10-27T19:55:30.895Z,100.00
2022-10-27T19:57:57.694Z,100.00
2022-10-27T20:00:24.594Z,100.00
2022-10-27T20:02:51.765Z,100.00
2022-10-27T20:05:23.796Z,100.00
2022-10-27T20:07:51.425Z,100.00
2022-10-27T20:10:19.082Z,100.00
2022-10-27T20:12:45.864Z,100.00
2022-10-27T20:15:13.233Z,100.00
2022-10-27T20:17:40.341Z,100.00
2022-10-27T20:20:08.091Z,100.00
2022-10-27T20:22:34.977Z,100.00
2022-10-27T20:25:01.753Z,100.00
2022-10-27T20:27:29.648Z,100.00
2022-10-27T20:29:56.761Z,100.00
2022-10-27T20:32:24.026Z,100.00
2022-10-27T20:34:51.577Z,100.00
2022-10-27T20:37:18.386Z,100.00
2022-10-27T20:39:45.367Z,100.00
2022-10-27T20:42:12.281Z,100.00
2022-10-27T20:44:39.057Z,100.00
2022-10-27T20:47:05.799Z,100.00
2022-10-27T20:49:32.543Z,100.00
2022-10-27T20:51:59.177Z,100.00
2022-10-27T20:54:26.123Z,100.00
2022-10-27T20:56:53.714Z,100.00
2022-10-27T20:59:23.909Z,100.00
2022-10-27T21:01:54.323Z,100.00
2022-10-27T21:04:22.319Z,100.00
2022-10-27T21:06:50.533Z,100.00
2022-10-27T21:09:19.746Z,100.00
2022-10-27T21:11:46.982Z,100.00
2022-10-27T21:14:14.292Z,100.00
2022-10-27T21:16:41.167Z,100.00
2022-10-27T21:19:09.502Z,100.00
2022-10-27T21:21:37.034Z,100.00
2022-10-27T21:24:04.759Z,100.00
2022-10-27T21:26:31.978Z,100.00
2022-10-27T21:28:59.548Z,100.00
2022-10-27T21:31:29.175Z,100.00
2022-10-27T21:33:56.613Z,100.00
2022-10-27T21:36:23.499Z,100.00
2022-10-27T21:38:51.179Z,100.00
2022-10-27T21:41:20.392Z,100.00
2022-10-27T21:43:50.252Z,100.00
2022-10-27T21:46:19.684Z,100.00
2022-10-27T21:48:46.808Z,100.00
2022-10-27T21:51:15.258Z,100.00
2022-10-27T21:53:42.781Z,100.00
2022-10-27T21:56:11.063Z,100.00
2022-10-27T21:58:38.327Z,100.00
2022-10-27T22:01:10.802Z,100.00
2022-10-27T22:03:38.041Z,100.00
2022-10-27T22:06:05.485Z,100.00
2022-10-27T22:08:32.522Z,100.00
2022-10-27T22:11:03.862Z,100.00
2022-10-27T22:13:30.692Z,100.00
2022-10-27T22:16:06.784Z,100.00
2022-10-27T22:18:33.950Z,100.00
2022-10-27T22:21:00.663Z,100.00
2022-10-27T22:23:27.443Z,100.00
2022-10-27T22:25:54.379Z,100.00
2022-10-27T22:28:21.132Z,100.00
2022-10-27T22:30:47.857Z,100.00
2022-10-27T22:33:14.613Z,100.00
2022-10-27T22:35:41.407Z,100.00
2022-10-27T22:38:08.254Z,100.00
2022-10-27T22:40:34.954Z,100.00
2022-10-27T22:43:01.651Z,100.00
2022-10-27T22:45:28.542Z,100.00
2022-10-27T22:47:55.568Z,100.00
2022-10-27T22:50:22.373Z,100.00
2022-10-27T22:52:49.235Z,100.00
2022-10-27T22:55:16.116Z,100.00
2022-10-27T22:57:42.890Z,100.00
2022-10-27T23:00:10.229Z,100.00
2022-10-27T23:02:36.925Z,100.00
2022-10-27T23:05:04.165Z,100.00
2022-10-27T23:07:31.033Z,100.00
2022-10-27T23:09:57.886Z,100.00
2022-10-27T23:12:24.604Z,100.00
2022-10-27T23:14:51.542Z,100.00
2022-10-27T23:17:18.271Z,100.00
2022-10-27T23:19:44.960Z,100.00
2022-10-27T23:22:11.732Z,100.00
2022-10-27T23:24:38.410Z,100.00
2022-10-27T23:27:05.064Z,100.00
2022-10-27T23:29:31.973Z,100.00
2022-10-27T23:31:58.774Z,100.00
2022-10-27T23:34:25.641Z,100.00
2022-10-27T23:36:52.312Z,100.00
2022-10-27T23:39:19.003Z,100.00
2022-10-27T23:41:45.701Z,100.00
2022-10-27T23:44:12.668Z,100.00
2022-10-27T23:46:39.386Z,100.00
2022-10-27T23:49:06.136Z,100.00
2022-10-27T23:51:33.029Z,100.00
2022-10-27T23:54:00.034Z,100.00
2022-10-27T23:56:26.987Z,100.00
2022-10-27T23:58:54.404Z,100.00
